createdAt,value
2018-01-15T00:01:48.814Z,1.90
2018-01-15T00:04:16.258Z,1.96
2018-01-15T00:06:43.718Z,1.94
2018-01-15T00:09:11.189Z,1.98
2018-01-15T00:11:38.657Z,2.05
2018-01-15T00:14:06.136Z,1.94
2018-01-15T00:16:33.588Z,1.94
2018-01-15T00:19:01.052Z,1.93
2018-01-15T00:21:28.495Z,1.97
2018-01-15T00:23:56.017Z,1.90
2018-01-15T00:26:23.484Z,1.96
2018-01-15T00:28:50.959Z,1.95
2018-01-15T00:31:18.418Z,1.97
2018-01-15T00:33:45.987Z,1.97
2018-01-15T00:36:13.451Z,1.95
2018-01-15T00:38:40.925Z,1.94
2018-01-15T00:41:08.384Z,1.88
2018-01-15T00:43:35.926Z,1.88
2018-01-15T00:46:03.404Z,1.95
2018-01-15T00:48:30.910Z,1.96
2018-01-15T00:50:58.392Z,1.97
2018-01-15T00:53:25.869Z,1.93
2018-01-15T00:55:53.429Z,1.86
2018-01-15T00:58:20.896Z,1.87
2018-01-15T01:00:48.366Z,1.87
2018-01-15T01:03:15.941Z,1.84
2018-01-15T01:05:43.395Z,1.81
2018-01-15T01:08:10.854Z,1.80
2018-01-15T01:10:38.325Z,1.79
2018-01-15T01:13:05.795Z,1.85
2018-01-15T01:15:33.284Z,1.82
2018-01-15T01:18:00.748Z,1.83
2018-01-15T01:20:28.204Z,1.83
2018-01-15T01:22:55.682Z,1.85
2018-01-15T01:25:23.133Z,1.86
2018-01-15T01:27:50.636Z,1.87
2018-01-15T01:30:18.101Z,1.81
2018-01-15T01:32:45.574Z,1.83
2018-01-15T01:35:13.011Z,1.83
2018-01-15T01:37:40.477Z,1.83
2018-01-15T01:40:07.978Z,1.87
2018-01-15T01:42:35.449Z,1.89
2018-01-15T01:45:02.942Z,1.81
2018-01-15T01:47:30.416Z,1.80
2018-01-15T01:49:57.886Z,1.80
2018-01-15T01:52:25.361Z,1.74
2018-01-15T01:54:52.831Z,1.79
2018-01-15T01:57:20.282Z,1.84
2018-01-15T01:59:47.837Z,1.76
2018-01-15T02:02:16.751Z,1.72
2018-01-15T02:04:44.318Z,1.73
2018-01-15T02:07:11.808Z,1.70
2018-01-15T02:09:39.270Z,1.68
2018-01-15T02:12:06.721Z,1.67
2018-01-15T02:14:34.197Z,1.65
2018-01-15T02:17:01.656Z,1.69
2018-01-15T02:19:29.140Z,1.69
2018-01-15T02:21:56.609Z,1.73
2018-01-15T02:24:24.080Z,1.72
2018-01-15T02:26:51.545Z,1.70
2018-01-15T02:29:19.997Z,1.73
2018-01-15T02:31:47.458Z,1.74
2018-01-15T02:34:14.927Z,1.78
2018-01-15T02:36:42.387Z,1.74
2018-01-15T02:39:09.920Z,1.69
2018-01-15T02:41:37.386Z,1.71
2018-01-15T02:44:04.842Z,1.70
2018-01-15T02:46:32.383Z,1.69
2018-01-15T02:48:59.905Z,1.66
2018-01-15T02:51:27.370Z,1.68
2018-01-15T02:53:54.854Z,1.67
2018-01-15T02:56:22.308Z,1.65
2018-01-15T02:58:49.781Z,1.63
2018-01-15T03:01:17.362Z,1.65
2018-01-15T03:03:44.829Z,1.66
2018-01-15T03:06:12.394Z,1.67
2018-01-15T03:08:39.874Z,1.65
2018-01-15T03:11:07.333Z,1.65
2018-01-15T03:13:34.898Z,1.63
2018-01-15T03:16:02.360Z,1.58
2018-01-15T03:18:29.836Z,1.63
2018-01-15T03:20:57.288Z,1.59
2018-01-15T03:23:24.777Z,1.58
2018-01-15T03:25:52.238Z,1.61
2018-01-15T03:28:19.724Z,1.57
2018-01-15T03:30:47.182Z,1.59
2018-01-15T03:33:14.634Z,1.57
2018-01-15T03:35:42.129Z,1.60
2018-01-15T03:38:09.570Z,1.56
2018-01-15T03:40:37.108Z,1.55
2018-01-15T03:43:04.565Z,1.55
2018-01-15T03:45:32.104Z,1.61
2018-01-15T03:47:59.547Z,1.56
2018-01-15T03:50:27.024Z,1.53
2018-01-15T03:52:54.520Z,1.55
2018-01-15T03:55:21.982Z,1.53
2018-01-15T03:57:49.466Z,1.53
2018-01-15T04:00:16.957Z,1.50
2018-01-15T04:02:44.502Z,1.47
2018-01-15T04:05:11.958Z,1.48
2018-01-15T04:07:39.426Z,1.48
2018-01-15T04:10:06.914Z,1.47
2018-01-15T04:12:34.391Z,1.40
2018-01-15T04:15:01.845Z,1.34
2018-01-15T04:17:29.328Z,1.30
2018-01-15T04:19:56.799Z,1.30
2018-01-15T04:22:24.370Z,1.30
2018-01-15T04:24:51.929Z,1.26
2018-01-15T04:27:19.496Z,1.26
2018-01-15T04:29:46.956Z,1.20
2018-01-15T04:32:14.405Z,1.16
2018-01-15T04:34:41.873Z,1.11
2018-01-15T04:37:09.353Z,1.10
2018-01-15T04:39:36.855Z,1.09
2018-01-15T04:42:04.342Z,1.07
2018-01-15T04:44:31.915Z,1.01
2018-01-15T04:46:59.476Z,1.03
2018-01-15T04:49:26.956Z,0.96
2018-01-15T04:51:54.415Z,0.99
2018-01-15T04:54:21.903Z,1.00
2018-01-15T04:56:49.351Z,0.98
2018-01-15T04:59:16.825Z,0.95
2018-01-15T05:01:44.283Z,0.91
2018-01-15T05:04:11.751Z,0.89
2018-01-15T05:06:39.223Z,0.93
2018-01-15T05:09:06.689Z,0.97
2018-01-15T05:11:34.147Z,0.99
2018-01-15T05:14:02.456Z,1.02
2018-01-15T05:16:30.031Z,1.00
2018-01-15T05:18:57.500Z,0.99
2018-01-15T05:21:24.961Z,0.97
2018-01-15T05:23:52.438Z,1.01
2018-01-15T05:26:19.917Z,0.93
2018-01-15T05:28:47.390Z,0.89
2018-01-15T05:31:14.905Z,0.87
2018-01-15T05:33:42.413Z,0.88
2018-01-15T05:36:09.998Z,0.89
2018-01-15T05:38:37.468Z,0.90
2018-01-15T05:41:04.925Z,0.94
2018-01-15T05:43:32.415Z,0.92
2018-01-15T05:45:59.873Z,0.91
2018-01-15T05:48:27.869Z,0.91
2018-01-15T05:50:55.329Z,0.89
2018-01-15T05:53:22.883Z,0.99
2018-01-15T05:55:50.327Z,0.89
2018-01-15T05:58:17.791Z,0.89
2018-01-15T06:00:45.248Z,0.89
2018-01-15T06:03:13.426Z,0.82
2018-01-15T06:05:40.961Z,0.83
2018-01-15T06:08:08.440Z,0.81
2018-01-15T06:10:35.905Z,0.75
2018-01-15T06:13:03.465Z,0.75
2018-01-15T06:15:30.937Z,0.74
2018-01-15T06:17:58.400Z,0.73
2018-01-15T06:20:25.868Z,0.74
2018-01-15T06:22:53.341Z,0.71
2018-01-15T06:25:20.824Z,0.67
2018-01-15T06:27:48.283Z,0.64
2018-01-15T06:30:16.960Z,0.67
2018-01-15T06:32:44.426Z,0.71
2018-01-15T06:35:11.892Z,0.73
2018-01-15T06:37:39.407Z,0.66
2018-01-15T06:40:06.865Z,0.71
2018-01-15T06:42:34.331Z,0.69
2018-01-15T06:45:01.786Z,0.67
2018-01-15T06:47:29.376Z,0.66
2018-01-15T06:49:56.841Z,0.64
2018-01-15T06:52:24.323Z,0.70
2018-01-15T06:54:51.779Z,0.69
2018-01-15T06:57:19.248Z,0.67
2018-01-15T06:59:46.716Z,0.65
2018-01-15T07:02:14.204Z,0.62
2018-01-15T07:04:41.662Z,0.60
2018-01-15T07:07:09.114Z,0.68
2018-01-15T07:09:36.584Z,0.68
2018-01-15T07:12:04.118Z,0.67
2018-01-15T07:14:31.591Z,0.63
2018-01-15T07:16:59.117Z,0.59
2018-01-15T07:19:26.568Z,0.60
2018-01-15T07:21:54.061Z,0.60
2018-01-15T07:24:21.531Z,0.62
2018-01-15T07:26:48.990Z,0.66
2018-01-15T07:29:16.469Z,0.66
2018-01-15T07:31:43.999Z,0.68
2018-01-15T07:34:11.513Z,0.73
2018-01-15T07:36:38.982Z,0.71
2018-01-15T07:39:06.456Z,0.73
2018-01-15T07:41:33.919Z,0.74
2018-01-15T07:44:01.376Z,0.78
2018-01-15T07:46:28.836Z,0.82
2018-01-15T07:48:56.329Z,0.83
2018-01-15T07:51:23.787Z,0.86
2018-01-15T07:53:51.249Z,0.89
2018-01-15T07:56:18.721Z,0.95
2018-01-15T07:58:46.199Z,1.01
2018-01-15T08:01:13.657Z,1.03
2018-01-15T08:03:41.109Z,1.08
2018-01-15T08:06:08.572Z,1.16
2018-01-15T08:08:36.023Z,1.19
2018-01-15T08:11:03.567Z,1.26
2018-01-15T08:13:31.127Z,1.37
2018-01-15T08:15:58.652Z,1.47
2018-01-15T08:18:26.124Z,1.67
2018-01-15T08:20:53.609Z,1.96
2018-01-15T08:23:21.070Z,2.07
2018-01-15T08:25:48.543Z,2.13
2018-01-15T08:28:16.000Z,2.22
2018-01-15T08:30:43.512Z,2.26
2018-01-15T08:33:10.996Z,2.48
2018-01-15T08:35:38.452Z,2.56
2018-01-15T08:38:05.913Z,2.67
2018-01-15T08:40:33.395Z,2.71
2018-01-15T08:43:00.943Z,2.49
2018-01-15T08:45:28.425Z,2.43
2018-01-15T08:47:55.913Z,2.67
2018-01-15T08:50:23.391Z,2.35
2018-01-15T08:52:50.856Z,2.16
2018-01-15T08:55:18.428Z,2.24
2018-01-15T08:57:45.894Z,2.34
2018-01-15T09:00:13.363Z,2.41
2018-01-15T09:02:40.833Z,2.52
2018-01-15T09:05:08.299Z,2.43
2018-01-15T09:07:35.756Z,2.33
2018-01-15T09:10:03.228Z,2.49
2018-01-15T09:12:30.715Z,2.22
2018-01-15T09:14:58.188Z,2.32
2018-01-15T09:17:25.761Z,2.25
2018-01-15T09:19:53.277Z,2.30
2018-01-15T09:22:20.787Z,2.01
2018-01-15T09:24:48.442Z,2.07
2018-01-15T09:27:15.899Z,2.19
2018-01-15T09:29:43.407Z,2.05
2018-01-15T09:32:10.886Z,2.11
2018-01-15T09:34:38.339Z,1.95
2018-01-15T09:37:05.803Z,2.10
2018-01-15T09:39:33.291Z,2.14
2018-01-15T09:42:00.872Z,2.17
2018-01-15T09:44:28.331Z,2.23
2018-01-15T09:46:55.785Z,2.37
2018-01-15T09:49:23.281Z,2.45
2018-01-15T09:51:50.759Z,2.31
2018-01-15T09:54:18.218Z,2.50
2018-01-15T09:56:45.669Z,2.72
2018-01-15T09:59:13.248Z,2.93
2018-01-15T10:01:40.740Z,3.02
2018-01-15T10:04:08.306Z,2.86
2018-01-15T10:06:35.765Z,2.64
2018-01-15T10:09:03.253Z,2.64
2018-01-15T10:11:30.713Z,2.65
2018-01-15T10:13:58.176Z,2.97
2018-01-15T10:16:25.637Z,3.50
2018-01-15T10:18:53.145Z,3.99
2018-01-15T10:21:20.676Z,3.55
2018-01-15T10:23:48.159Z,3.11
2018-01-15T10:26:15.647Z,3.34
2018-01-15T10:28:43.204Z,3.30
2018-01-15T10:31:10.675Z,3.74
2018-01-15T10:33:38.127Z,4.25
2018-01-15T10:36:05.744Z,3.98
2018-01-15T10:38:33.211Z,3.39
2018-01-15T10:41:00.747Z,3.50
2018-01-15T10:43:28.216Z,3.76
2018-01-15T10:45:55.686Z,4.40
2018-01-15T10:48:23.146Z,3.74
2018-01-15T10:50:50.672Z,4.08
2018-01-15T10:53:18.209Z,3.71
2018-01-15T10:55:45.761Z,3.63
2018-01-15T10:58:13.235Z,3.81
2018-01-15T11:00:46.300Z,4.08
2018-01-15T11:03:13.773Z,4.31
2018-01-15T11:05:41.268Z,4.34
2018-01-15T11:08:08.736Z,3.92
2018-01-15T11:10:36.209Z,4.03
2018-01-15T11:13:03.665Z,4.56
2018-01-15T11:15:31.149Z,4.62
2018-01-15T11:17:58.626Z,4.10
2018-01-15T11:20:26.161Z,4.15
2018-01-15T11:22:53.630Z,4.35
2018-01-15T11:25:21.247Z,4.41
2018-01-15T11:27:48.814Z,4.44
2018-01-15T11:30:17.685Z,4.65
2018-01-15T11:32:45.192Z,5.05
2018-01-15T11:35:12.751Z,4.44
2018-01-15T11:37:40.280Z,4.03
2018-01-15T11:40:07.824Z,4.11
2018-01-15T11:42:35.382Z,4.48
2018-01-15T11:45:02.885Z,4.70
2018-01-15T11:47:30.412Z,4.47
2018-01-15T11:49:57.877Z,4.66
2018-01-15T11:52:25.497Z,4.81
2018-01-15T11:54:53.101Z,4.84
2018-01-15T11:57:20.555Z,5.38
2018-01-15T11:59:48.020Z,5.24
2018-01-15T12:02:15.537Z,5.59
2018-01-15T12:04:43.108Z,5.49
2018-01-15T12:07:10.582Z,5.47
2018-01-15T12:09:38.041Z,5.19
2018-01-15T12:12:05.488Z,4.91
2018-01-15T12:14:32.961Z,4.94
2018-01-15T12:17:00.456Z,4.95
2018-01-15T12:19:27.912Z,4.86
2018-01-15T12:21:55.385Z,5.28
2018-01-15T12:24:22.838Z,5.87
2018-01-15T12:26:50.332Z,6.31
2018-01-15T12:29:17.804Z,5.37
2018-01-15T12:31:45.291Z,5.75
2018-01-15T12:34:12.850Z,5.65
2018-01-15T12:36:40.324Z,5.75
2018-01-15T12:39:07.789Z,5.39
2018-01-15T12:41:35.258Z,5.51
2018-01-15T12:44:02.717Z,5.52
2018-01-15T12:46:30.169Z,5.49
2018-01-15T12:48:57.682Z,5.24
2018-01-15T12:51:25.176Z,5.21
2018-01-15T12:53:52.641Z,5.12
2018-01-15T12:56:20.112Z,5.15
2018-01-15T12:58:47.596Z,4.70
2018-01-15T13:01:15.057Z,4.48
2018-01-15T13:03:42.531Z,4.06
2018-01-15T13:06:10.064Z,3.69
2018-01-15T13:11:37.514Z,3.41
2018-01-15T13:14:05.034Z,3.73
2018-01-15T13:16:32.491Z,3.85
2018-01-15T13:19:00.175Z,3.84
2018-01-15T13:21:27.664Z,3.62
2018-01-15T13:23:55.228Z,3.54
2018-01-15T13:26:22.756Z,3.71
2018-01-15T13:28:50.234Z,3.76
2018-01-15T13:31:17.738Z,3.81
2018-01-15T13:33:45.203Z,4.09
2018-01-15T13:36:12.656Z,4.04
2018-01-15T13:38:40.144Z,4.47
2018-01-15T13:41:07.626Z,4.42
2018-01-15T13:43:35.096Z,4.79
2018-01-15T13:46:02.581Z,4.80
2018-01-15T13:48:30.041Z,4.79
2018-01-15T13:50:57.501Z,4.23
2018-01-15T13:53:24.964Z,4.22
2018-01-15T13:55:52.482Z,4.43
2018-01-15T13:58:20.000Z,4.38
2018-01-15T14:00:47.464Z,4.19
2018-01-15T14:03:14.925Z,4.20
2018-01-15T14:05:42.413Z,3.86
2018-01-15T14:08:09.874Z,3.72
2018-01-15T14:10:37.480Z,3.72
2018-01-15T14:13:04.951Z,3.49
2018-01-15T14:15:32.429Z,3.45
2018-01-15T14:17:59.893Z,3.33
2018-01-15T14:20:27.371Z,3.04
2018-01-15T14:22:54.908Z,2.89
2018-01-15T14:25:22.352Z,2.62
2018-01-15T14:27:49.882Z,2.49
2018-01-15T14:30:17.344Z,2.43
2018-01-15T14:32:44.792Z,2.47
2018-01-15T14:35:12.288Z,2.46
2018-01-15T14:37:39.762Z,2.46
2018-01-15T14:40:07.272Z,2.37
2018-01-15T14:42:34.719Z,2.37
2018-01-15T14:45:02.188Z,2.35
2018-01-15T14:47:29.666Z,2.46
2018-01-15T14:49:57.136Z,2.38
2018-01-15T14:52:24.638Z,2.44
2018-01-15T14:54:52.606Z,2.45
2018-01-15T14:57:20.109Z,2.40
2018-01-15T14:59:47.613Z,2.29
2018-01-15T15:02:15.106Z,2.25
2018-01-15T15:04:42.664Z,2.18
2018-01-15T15:07:10.139Z,2.13
2018-01-15T15:09:37.590Z,2.18
2018-01-15T15:12:05.091Z,2.06
2018-01-15T15:14:32.550Z,2.02
2018-01-15T15:17:00.115Z,2.02
2018-01-15T15:19:27.554Z,1.91
2018-01-15T15:21:55.020Z,1.84
2018-01-15T15:24:22.482Z,1.74
2018-01-15T15:26:49.944Z,1.68
2018-01-15T15:29:17.508Z,1.64
2018-01-15T15:31:44.987Z,1.54
2018-01-15T15:34:12.479Z,1.54
2018-01-15T15:36:40.130Z,1.48
2018-01-15T15:39:07.696Z,1.45
2018-01-15T15:41:35.151Z,1.43
2018-01-15T15:44:02.632Z,1.39
2018-01-15T15:46:30.107Z,1.37
2018-01-15T15:48:57.749Z,1.37
2018-01-15T15:51:25.246Z,1.31
2018-01-15T15:53:52.755Z,1.33
2018-01-15T15:56:20.260Z,1.30
2018-01-15T15:58:47.764Z,1.23
2018-01-15T16:01:15.245Z,1.23
2018-01-15T16:03:42.953Z,1.23
2018-01-15T16:06:11.095Z,1.22
2018-01-15T16:08:38.564Z,1.24
2018-01-15T16:11:06.039Z,1.22
2018-01-15T16:13:33.605Z,1.23
2018-01-15T16:16:01.063Z,1.20
2018-01-15T16:18:28.573Z,1.20
2018-01-15T16:20:56.073Z,1.14
2018-01-15T16:23:23.544Z,1.14
2018-01-15T16:25:51.043Z,1.11
2018-01-15T16:28:18.523Z,1.11
2018-01-15T16:30:45.989Z,1.12
2018-01-15T16:33:13.517Z,1.07
2018-01-15T16:35:41.046Z,1.07
2018-01-15T16:38:08.600Z,1.05
2018-01-15T16:40:36.131Z,1.04
2018-01-15T16:43:03.656Z,1.05
2018-01-15T16:45:50.392Z,1.04
2018-01-15T16:48:21.571Z,1.05
2018-01-15T16:50:49.198Z,1.10
2018-01-15T16:53:16.708Z,1.09
2018-01-15T16:55:44.181Z,1.07
2018-01-15T16:58:11.857Z,1.05
2018-01-15T17:00:39.426Z,1.03
2018-01-15T17:03:06.916Z,1.02
2018-01-15T17:05:34.421Z,1.00
2018-01-15T17:08:01.919Z,0.97
2018-01-15T17:10:30.469Z,0.97
2018-01-15T17:12:57.981Z,0.95
2018-01-15T17:15:25.478Z,0.97
2018-01-15T17:17:52.930Z,0.94
2018-01-15T17:20:20.474Z,0.95
2018-01-15T17:22:47.981Z,0.93
2018-01-15T17:25:15.759Z,0.95
2018-01-15T17:27:43.324Z,0.96
2018-01-15T17:30:10.950Z,0.94
2018-01-15T17:32:38.437Z,0.94
2018-01-15T17:35:05.884Z,0.94
2018-01-15T17:37:33.390Z,0.94
2018-01-15T17:40:00.831Z,0.92
2018-01-15T17:42:28.332Z,0.93
2018-01-15T17:44:55.828Z,0.93
2018-01-15T17:47:23.367Z,0.95
2018-01-15T17:49:52.017Z,0.93
2018-01-15T17:52:20.436Z,0.92
2018-01-15T17:54:47.912Z,0.90
2018-01-15T17:57:15.441Z,0.89
2018-01-15T17:59:42.896Z,0.91
2018-01-15T18:02:10.386Z,0.93
2018-01-15T18:04:37.863Z,0.95
2018-01-15T18:07:05.540Z,0.94
2018-01-15T18:09:33.037Z,0.95
2018-01-15T18:12:00.638Z,0.96
2018-01-15T18:14:28.438Z,0.92
2018-01-15T18:16:55.955Z,0.91
2018-01-15T18:19:23.581Z,0.87
2018-01-15T18:21:51.260Z,0.90
2018-01-15T18:24:18.882Z,0.89
2018-01-15T18:26:46.492Z,0.89
2018-01-15T18:29:14.011Z,0.87
2018-01-15T18:31:41.473Z,0.85
2018-01-15T18:34:08.974Z,0.90
2018-01-15T18:36:36.481Z,0.88
2018-01-15T18:39:03.941Z,0.87
2018-01-15T18:41:31.643Z,0.84
2018-01-15T18:43:59.163Z,0.81
2018-01-15T18:46:26.765Z,0.80
2018-01-15T18:48:54.557Z,0.80
2018-01-15T18:51:22.050Z,0.81
2018-01-15T18:53:49.531Z,0.81
2018-01-15T18:56:17.123Z,0.77
2018-01-15T18:58:44.738Z,0.74
2018-01-15T19:01:12.271Z,0.75
2018-01-15T19:03:39.888Z,0.72
2018-01-15T19:06:11.073Z,0.72
2018-01-15T19:08:38.529Z,0.73
2018-01-15T19:11:06.004Z,0.69
2018-01-15T19:13:33.525Z,0.64
2018-01-15T19:16:01.000Z,0.64
2018-01-15T19:18:28.472Z,0.64
2018-01-15T19:20:55.972Z,0.61
2018-01-15T19:23:23.515Z,0.55
2018-01-15T19:25:50.990Z,0.51
2018-01-15T19:28:18.489Z,0.47
2018-01-15T19:30:45.990Z,0.50
2018-01-15T19:33:13.537Z,0.48
2018-01-15T19:35:46.833Z,0.53
2018-01-15T19:41:11.880Z,0.49
2018-01-15T19:46:47.845Z,0.45
2018-01-15T19:49:21.261Z,0.45
2018-01-15T19:51:54.497Z,0.51
2018-01-15T19:54:27.615Z,0.46
2018-01-15T20:00:17.818Z,0.45
2018-01-15T20:02:50.789Z,0.45
2018-01-15T20:05:24.046Z,0.40
2018-01-15T20:07:57.155Z,0.41
2018-01-15T20:10:30.167Z,0.41
2018-01-15T20:12:57.675Z,0.42
2018-01-15T20:15:25.185Z,0.41
2018-01-15T20:17:52.644Z,0.41
2018-01-15T20:20:20.165Z,0.40
2018-01-15T20:22:47.756Z,0.39
2018-01-15T20:25:15.278Z,0.39
2018-01-15T20:27:42.759Z,0.38
2018-01-15T20:30:10.259Z,0.40
2018-01-15T20:33:00.313Z,0.43
2018-01-15T20:35:29.841Z,0.47
2018-01-15T20:37:57.313Z,0.47
2018-01-15T20:40:24.810Z,0.51
2018-01-15T20:43:06.324Z,0.55
2018-01-15T20:45:35.409Z,0.53
2018-01-15T20:48:02.859Z,0.48
2018-01-15T20:50:30.356Z,0.48
2018-01-15T20:52:57.914Z,0.49
2018-01-15T20:55:25.747Z,0.49
2018-01-15T20:57:53.252Z,0.49
2018-01-15T21:00:22.067Z,0.45
2018-01-15T21:02:49.557Z,0.42
2018-01-15T21:05:17.094Z,0.44
2018-01-15T21:07:44.590Z,0.44
2018-01-15T21:10:12.060Z,0.49
2018-01-15T21:12:39.510Z,0.46
2018-01-15T21:15:06.973Z,0.47
2018-01-15T21:17:34.430Z,0.47
2018-01-15T21:20:02.093Z,0.47
2018-01-15T21:22:29.581Z,0.46
2018-01-15T21:24:57.136Z,0.46
2018-01-15T21:27:24.642Z,0.48
2018-01-15T21:29:52.154Z,0.48
2018-01-15T21:32:19.702Z,0.50
2018-01-15T21:34:47.241Z,0.48
2018-01-15T21:37:14.706Z,0.46
2018-01-15T21:39:42.246Z,0.47
2018-01-15T21:42:09.700Z,0.48
2018-01-15T21:44:37.195Z,0.47
2018-01-15T21:47:04.696Z,0.48
2018-01-15T21:49:32.235Z,0.41
2018-01-15T21:51:59.782Z,0.39
2018-01-15T21:54:27.375Z,0.41
2018-01-15T21:56:54.902Z,0.42
2018-01-15T21:59:22.367Z,0.44
2018-01-15T22:01:49.828Z,0.45
2018-01-15T22:04:17.293Z,0.49
2018-01-15T22:06:52.986Z,0.52
2018-01-15T22:09:42.998Z,0.54
2018-01-15T22:12:14.721Z,0.58
2018-01-15T22:14:42.237Z,0.53
2018-01-15T22:17:09.705Z,0.51
2018-01-15T22:19:37.182Z,0.50
2018-01-15T22:22:04.676Z,0.51
2018-01-15T22:24:32.213Z,0.50
2018-01-15T22:26:59.678Z,0.50
2018-01-15T22:29:27.133Z,0.51
2018-01-15T22:31:54.586Z,0.49
2018-01-15T22:34:22.080Z,0.51
2018-01-15T22:36:49.585Z,0.53
2018-01-15T22:39:17.056Z,0.55
2018-01-15T22:41:44.598Z,0.55
2018-01-15T22:44:12.067Z,0.51
2018-01-15T22:46:39.554Z,0.54
2018-01-15T22:49:07.038Z,0.55
2018-01-15T22:51:34.596Z,0.57
2018-01-15T22:54:02.035Z,0.50
2018-01-15T22:56:29.506Z,0.50
2018-01-15T22:58:56.961Z,0.48
2018-01-15T23:01:24.413Z,0.46
2018-01-15T23:03:51.873Z,0.46
2018-01-15T23:06:19.418Z,0.42
2018-01-15T23:08:46.923Z,0.46
2018-01-15T23:11:14.386Z,0.44
2018-01-15T23:13:41.930Z,0.44
2018-01-15T23:16:09.390Z,0.49
2018-01-15T23:18:36.836Z,0.41
2018-01-15T23:21:04.359Z,0.42
2018-01-15T23:23:31.920Z,0.39
2018-01-15T23:25:59.497Z,0.40
2018-01-15T23:28:26.987Z,0.40
2018-01-15T23:30:54.466Z,0.39
2018-01-15T23:33:21.933Z,0.45
2018-01-15T23:35:49.383Z,0.41
2018-01-15T23:38:16.850Z,0.43
2018-01-15T23:40:44.294Z,0.47
2018-01-15T23:43:11.780Z,0.41
2018-01-15T23:45:39.240Z,0.38
2018-01-15T23:48:06.721Z,0.37
2018-01-15T23:50:34.172Z,0.34
2018-01-15T23:53:01.674Z,0.34
2018-01-15T23:55:29.138Z,0.37
2018-01-15T23:57:56.630Z,0.33
